createdAt,value
2023-02-13T00:00:47.485Z,102432.72
2023-02-13T00:01:49.009Z,102430.16
2023-02-13T00:02:50.743Z,102426.31
2023-02-13T00:03:52.247Z,102421.97
2023-02-13T00:04:53.762Z,102426.66
2023-02-13T00:05:55.291Z,102428.59
2023-02-13T00:06:56.880Z,102424.94
2023-02-13T00:07:58.353Z,102423.22
2023-02-13T00:08:59.871Z,102426.19
2023-02-13T00:10:01.406Z,102424.47
2023-02-13T00:11:02.957Z,102428.31
2023-02-13T00:12:04.835Z,102423.81
2023-02-13T00:13:06.348Z,102419.13
2023-02-13T00:14:07.889Z,102428.31
2023-02-13T00:15:09.533Z,102423.81
2023-02-13T00:16:11.160Z,102414.63
2023-02-13T00:17:12.680Z,102420.19
2023-02-13T00:18:14.174Z,102423.81
2023-02-13T00:19:15.663Z,102422.09
2023-02-13T00:20:17.211Z,102427.63
2023-02-13T00:21:18.705Z,102431.47
2023-02-13T00:22:20.191Z,102426.97
2023-02-13T00:23:21.738Z,102424.38
2023-02-13T00:24:23.215Z,102430.78
2023-02-13T00:25:24.726Z,102431.81
2023-02-13T00:26:26.274Z,102427.31
2023-02-13T00:27:27.738Z,102425.41
2023-02-13T00:28:29.373Z,102421.78
2023-02-13T00:29:30.893Z,102422.81
2023-02-13T00:30:32.440Z,102421.09
2023-02-13T00:31:33.994Z,102422.16
2023-02-13T00:32:35.581Z,102424.06
2023-02-13T00:33:37.101Z,102419.56
2023-02-13T00:34:38.559Z,102426.38
2023-02-13T00:35:40.067Z,102422.75
2023-02-13T00:36:41.582Z,102424.66
2023-02-13T00:37:43.069Z,102420.16
2023-02-13T00:38:44.641Z,102428.47
2023-02-13T00:39:46.690Z,102417.38
2023-02-13T00:40:48.167Z,102423.78
2023-02-13T00:41:49.839Z,102417.38
2023-02-13T00:42:51.352Z,102422.06
2023-02-13T00:43:52.818Z,102421.22
2023-02-13T00:44:54.464Z,102415.66
2023-02-13T00:45:56.044Z,102414.81
2023-02-13T00:46:59.310Z,102412.19
2023-02-13T00:48:00.798Z,102415.81
2023-02-13T00:49:02.267Z,102417.75
2023-02-13T00:50:03.869Z,102418.13
2023-02-13T00:51:05.670Z,102412.38
2023-02-13T00:52:07.150Z,102409.81
2023-02-13T00:53:08.654Z,102413.63
2023-02-13T00:54:10.168Z,102410.84
2023-02-13T00:55:11.745Z,102409.13
2023-02-13T00:56:13.231Z,102410.84
2023-02-13T00:57:17.151Z,102413.63
2023-02-13T00:58:18.890Z,102403.59
2023-02-13T00:59:20.428Z,102415.53
2023-02-13T01:00:21.984Z,102416.41
2023-02-13T01:01:23.570Z,102421.94
2023-02-13T01:02:25.213Z,102414.50
2023-02-13T01:03:26.778Z,102415.53
2023-02-13T01:04:28.308Z,102412.97
2023-02-13T01:05:31.956Z,102407.41
2023-02-13T01:06:33.416Z,102415.72
2023-02-13T01:07:35.008Z,102419.56
2023-02-13T01:08:38.731Z,102414.00
2023-02-13T01:09:40.255Z,102416.97
2023-02-13T01:10:41.972Z,102412.47
2023-02-13T01:11:43.461Z,102421.00
2023-02-13T01:12:45.051Z,102419.25
2023-02-13T01:13:46.544Z,102419.25
2023-02-13T01:14:48.072Z,102423.06
2023-02-13T01:15:49.704Z,102418.56
2023-02-13T01:16:51.327Z,102413.03
2023-02-13T01:17:53.609Z,102414.94
2023-02-13T01:18:55.133Z,102422.38
2023-02-13T01:19:57.650Z,102417.91
2023-02-13T01:21:00.292Z,102417.91
2023-02-13T01:22:01.909Z,102408.91
2023-02-13T01:23:03.608Z,102417.41
2023-02-13T01:24:05.308Z,102413.59
2023-02-13T01:25:06.954Z,102413.78
2023-02-13T01:26:08.665Z,102418.00
2023-02-13T01:27:10.172Z,102416.44
2023-02-13T01:28:11.742Z,102415.56
2023-02-13T01:29:13.512Z,102420.25
2023-02-13T01:30:15.477Z,102419.78
2023-02-13T01:31:17.211Z,102424.84
2023-02-13T01:32:18.772Z,102418.63
2023-02-13T01:33:21.023Z,102418.44
2023-02-13T01:34:22.493Z,102415.66
2023-02-13T01:35:23.934Z,102417.56
2023-02-13T01:36:25.512Z,102415.84
2023-02-13T01:37:28.183Z,102414.09
2023-02-13T01:38:29.663Z,102424.31
2023-02-13T01:39:31.382Z,102427.09
2023-02-13T01:40:32.889Z,102417.06
2023-02-13T01:41:35.307Z,102424.31
2023-02-13T01:42:36.797Z,102422.78
2023-02-13T01:43:44.268Z,102421.06
2023-02-13T01:44:45.693Z,102422.97
2023-02-13T01:45:49.954Z,102420.41
2023-02-13T01:46:53.126Z,102415.03
2023-02-13T01:47:58.498Z,102421.63
2023-02-13T01:49:03.172Z,102429.94
2023-02-13T01:50:12.345Z,102420.78
2023-02-13T01:51:16.048Z,102419.41
2023-02-13T01:52:17.596Z,102417.66
2023-02-13T01:53:51.230Z,102415.75
2023-02-13T01:54:53.867Z,102418.91
2023-02-13T01:56:05.753Z,102422.72
2023-02-13T01:57:08.719Z,102422.72
2023-02-13T01:58:12.631Z,102419.97
2023-02-13T01:59:16.128Z,102421.69
2023-02-13T02:00:17.849Z,102423.41
2023-02-13T02:01:19.515Z,102416.81
2023-02-13T02:02:22.977Z,102411.28
2023-02-13T02:03:35.733Z,102412.13
2023-02-13T02:04:41.326Z,102414.03
2023-02-13T02:05:48.443Z,102411.28
2023-02-13T02:06:51.054Z,102415.09
2023-02-13T02:07:59.686Z,102409.56
2023-02-13T02:09:06.107Z,102409.75
2023-02-13T02:10:08.756Z,102411.66
2023-02-13T02:11:14.120Z,102407.16
2023-02-13T02:12:30.518Z,102410.13
2023-02-13T02:13:32.044Z,102418.44
2023-02-13T02:14:39.057Z,102418.81
2023-02-13T02:15:42.630Z,102413.41
2023-02-13T02:16:44.134Z,102413.41
2023-02-13T02:17:45.737Z,102419.84
2023-02-13T02:18:47.228Z,102410.66
2023-02-13T02:19:48.710Z,102412.41
2023-02-13T02:21:08.522Z,102412.41
2023-02-13T02:22:21.932Z,102411.34
2023-02-13T02:23:32.334Z,102413.25
2023-02-13T02:24:40.621Z,102404.09
2023-02-13T02:25:44.977Z,102408.59
2023-02-13T02:27:05.523Z,102409.63
2023-02-13T02:28:27.083Z,102403.38
2023-02-13T02:29:28.654Z,102403.38
2023-02-13T02:30:30.164Z,102404.44
2023-02-13T02:31:44.051Z,102405.47
2023-02-13T02:32:53.539Z,102402.53
2023-02-13T02:34:09.327Z,102409.13
2023-02-13T02:35:23.702Z,102413.13
2023-02-13T02:36:35.464Z,102404.13
2023-02-13T02:37:46.247Z,102405.00
2023-02-13T02:38:47.962Z,102399.47
2023-02-13T02:40:07.917Z,102409.69
2023-02-13T02:41:09.991Z,102412.63
2023-02-13T02:42:23.809Z,102404.31
2023-02-13T02:43:28.137Z,102406.22
2023-02-13T02:44:56.001Z,102406.22
2023-02-13T02:46:12.394Z,102406.22
2023-02-13T02:47:32.543Z,102410.25
2023-02-13T02:48:55.605Z,102405.72
2023-02-13T02:50:11.510Z,102401.41
2023-02-13T02:51:27.278Z,102409.06
2023-02-13T02:52:54.558Z,102409.06
2023-02-13T02:54:32.098Z,102399.88
2023-02-13T02:55:37.660Z,102399.88
2023-02-13T02:56:42.952Z,102405.59
2023-02-13T02:58:04.334Z,102400.94
2023-02-13T02:59:26.597Z,102404.75
2023-02-13T03:00:46.903Z,102409.44
2023-02-13T03:02:08.790Z,102414.97
2023-02-13T03:03:38.762Z,102407.69
2023-02-13T03:04:59.084Z,102409.78
2023-02-13T03:06:14.305Z,102413.63
2023-02-13T03:07:16.588Z,102422.06
2023-02-13T03:08:38.039Z,102411.84
2023-02-13T03:09:58.986Z,102418.44
2023-02-13T03:11:19.308Z,102412.59
2023-02-13T03:12:40.341Z,102415.06
2023-02-13T03:13:45.061Z,102423.19
2023-02-13T03:14:46.528Z,102418.69
2023-02-13T03:16:07.739Z,102415.94
2023-02-13T03:17:29.477Z,102415.06
2023-02-13T03:18:49.961Z,102417.84
2023-02-13T03:20:45.392Z,102419.56
2023-02-13T03:22:15.310Z,102418.69
2023-02-13T03:23:35.416Z,102415.94
2023-02-13T03:24:48.626Z,102413.16
2023-02-13T03:26:13.078Z,102412.97
2023-02-13T03:27:40.978Z,102417.66
2023-02-13T03:29:00.749Z,102419.38
2023-02-13T03:30:07.131Z,102419.38
2023-02-13T03:31:12.864Z,102413.84
2023-02-13T03:32:20.847Z,102423.00
2023-02-13T03:33:22.312Z,102423.00
2023-02-13T03:34:23.986Z,102426.44
2023-02-13T03:35:50.392Z,102425.59
2023-02-13T03:37:18.390Z,102425.78
2023-02-13T03:38:40.162Z,102427.88
2023-02-13T03:39:56.849Z,102418.69
2023-02-13T03:41:17.858Z,102420.59
2023-02-13T03:42:19.317Z,102426.28
2023-02-13T03:43:20.813Z,102423.53
2023-02-13T03:44:29.182Z,102422.66
2023-02-13T03:45:49.876Z,102419.91
2023-02-13T03:46:51.542Z,102424.75
2023-02-13T03:47:53.436Z,102423.91
2023-02-13T03:49:13.481Z,102427.53
2023-02-13T03:50:15.062Z,102425.81
2023-02-13T03:51:25.088Z,102420.44
2023-02-13T03:52:29.298Z,102421.50
2023-02-13T03:53:31.584Z,102418.72
2023-02-13T03:54:53.337Z,102423.41
2023-02-13T03:56:13.326Z,102423.78
2023-02-13T03:57:34.149Z,102417.38
2023-02-13T03:58:54.930Z,102418.56
2023-02-13T03:59:56.441Z,102423.44
2023-02-13T04:00:58.958Z,102422.38
2023-02-13T04:02:03.647Z,102424.28
2023-02-13T04:03:13.807Z,102422.75
2023-02-13T04:04:22.997Z,102424.47
2023-02-13T04:05:28.377Z,102419.81
2023-02-13T04:06:33.406Z,102418.94
2023-02-13T04:07:35.511Z,102417.22
2023-02-13T04:08:36.969Z,102420.84
2023-02-13T04:09:39.265Z,102424.47
2023-02-13T04:11:09.762Z,102413.41
2023-02-13T04:12:21.226Z,102421.03
2023-02-13T04:13:27.572Z,102420.19
2023-02-13T04:14:30.970Z,102422.09
2023-02-13T04:15:52.788Z,102424.00
2023-02-13T04:16:58.047Z,102420.19
2023-02-13T04:18:03.551Z,102423.81
2023-02-13T04:19:05.308Z,102417.41
2023-02-13T04:20:07.212Z,102416.53
2023-02-13T04:21:08.802Z,102421.91
2023-02-13T04:22:11.456Z,102421.03
2023-02-13T04:23:12.940Z,102420.38
2023-02-13T04:24:14.413Z,102423.50
2023-02-13T04:25:16.273Z,102423.81
2023-02-13T04:26:18.867Z,102424.00
2023-02-13T04:27:20.308Z,102419.03
2023-02-13T04:28:21.946Z,102422.16
2023-02-13T04:29:23.604Z,102428.03
2023-02-13T04:30:25.127Z,102422.00
2023-02-13T04:31:26.822Z,102424.78
2023-02-13T04:32:28.979Z,102427.72
2023-02-13T04:33:30.541Z,102423.91
2023-02-13T04:34:32.039Z,102432.22
2023-02-13T04:35:33.539Z,102431.16
2023-02-13T04:36:35.065Z,102418.38
2023-02-13T04:37:36.539Z,102425.63
2023-02-13T04:38:38.093Z,102428.22
2023-02-13T04:39:39.617Z,102419.91
2023-02-13T04:40:41.070Z,102416.47
2023-02-13T04:41:42.679Z,102421.81
2023-02-13T04:42:44.216Z,102418.38
2023-02-13T04:43:45.695Z,102425.81
2023-02-13T04:44:47.153Z,102426.00
2023-02-13T04:45:49.085Z,102414.94
2023-02-13T04:46:50.674Z,102417.69
2023-02-13T04:47:52.660Z,102417.69
2023-02-13T04:48:54.148Z,102414.94
2023-02-13T04:49:55.585Z,102414.06
2023-02-13T04:50:57.266Z,102412.16
2023-02-13T04:51:58.964Z,102412.16
2023-02-13T04:53:00.448Z,102418.06
2023-02-13T04:54:01.965Z,102417.00
2023-02-13T04:55:04.013Z,102414.25
2023-02-13T04:56:05.533Z,102414.25
2023-02-13T04:57:07.048Z,102406.81
2023-02-13T04:58:08.561Z,102414.94
2023-02-13T04:59:09.997Z,102420.47
2023-02-13T05:00:11.926Z,102421.50
2023-02-13T05:01:14.045Z,102427.72
2023-02-13T05:02:15.635Z,102423.22
2023-02-13T05:03:17.100Z,102420.47
2023-02-13T05:04:18.680Z,102412.34
2023-02-13T05:05:20.242Z,102422.53
2023-02-13T05:06:21.711Z,102426.00
2023-02-13T05:07:23.218Z,102414.94
2023-02-13T05:08:24.671Z,102413.88
2023-02-13T05:09:26.181Z,102418.56
2023-02-13T05:10:27.856Z,102415.78
2023-02-13T05:11:29.336Z,102423.03
2023-02-13T05:12:30.821Z,102427.72
2023-02-13T05:13:32.512Z,102419.41
2023-02-13T05:14:33.967Z,102424.94
2023-02-13T05:15:35.477Z,102427.03
2023-02-13T05:16:37.023Z,102430.66
2023-02-13T05:17:38.527Z,102424.28
2023-02-13T05:18:40.038Z,102422.38
2023-02-13T05:19:41.488Z,102423.41
2023-02-13T05:20:42.993Z,102428.09
2023-02-13T05:22:03.149Z,102423.41
2023-02-13T05:23:22.955Z,102421.50
2023-02-13T05:24:24.481Z,102429.13
2023-02-13T05:25:26.198Z,102428.44
2023-02-13T05:26:27.661Z,102423.78
2023-02-13T05:27:29.192Z,102419.09
2023-02-13T05:28:49.031Z,102419.09
2023-02-13T05:29:50.496Z,102424.63
2023-02-13T05:30:52.301Z,102424.63
2023-02-13T05:31:54.536Z,102423.97
2023-02-13T05:32:56.153Z,102423.06
2023-02-13T05:33:57.682Z,102424.97
2023-02-13T05:34:59.156Z,102426.72
2023-02-13T05:36:00.635Z,102424.97
2023-02-13T05:37:02.210Z,102429.50
2023-02-13T05:38:03.656Z,102418.56
2023-02-13T05:39:05.452Z,102421.34
2023-02-13T05:40:07.267Z,102424.97
2023-02-13T05:41:08.802Z,102430.50
2023-02-13T05:42:10.998Z,102420.47
2023-02-13T05:43:12.501Z,102413.91
2023-02-13T05:44:14.022Z,102424.97
2023-02-13T05:45:16.192Z,102417.72
2023-02-13T05:46:17.721Z,102422.19
2023-02-13T05:47:19.242Z,102416.66
2023-02-13T05:48:20.732Z,102417.72
2023-02-13T05:49:22.964Z,102416.84
2023-02-13T05:50:24.470Z,102418.56
2023-02-13T05:51:25.984Z,102424.09
2023-02-13T05:52:27.481Z,102417.72
2023-02-13T05:53:29.869Z,102415.13
2023-02-13T05:54:31.377Z,102416.00
2023-02-13T05:55:32.881Z,102410.81
2023-02-13T05:56:34.398Z,102414.63
2023-02-13T05:57:35.939Z,102414.63
2023-02-13T05:58:37.427Z,102415.50
2023-02-13T05:59:38.973Z,102421.88
2023-02-13T06:00:40.468Z,102412.53
2023-02-13T06:01:41.924Z,102408.91
2023-02-13T06:02:43.539Z,102409.78
2023-02-13T06:03:45.100Z,102407.00
2023-02-13T06:04:46.638Z,102409.97
2023-02-13T06:05:48.126Z,102410.97
2023-02-13T06:06:49.597Z,102412.00
2023-02-13T06:07:51.093Z,102403.91
2023-02-13T06:08:52.559Z,102414.97
2023-02-13T06:09:54.049Z,102407.69
2023-02-13T06:10:55.564Z,102419.63
2023-02-13T06:11:57.081Z,102416.19
2023-02-13T06:12:58.577Z,102420.81
2023-02-13T06:14:00.101Z,102418.25
2023-02-13T06:15:01.614Z,102422.91
2023-02-13T06:16:03.379Z,102430.34
2023-02-13T06:17:04.906Z,102416.69
2023-02-13T06:18:06.433Z,102428.81
2023-02-13T06:19:07.966Z,102417.75
2023-02-13T06:20:09.582Z,102426.03
2023-02-13T06:21:11.049Z,102427.06
2023-02-13T06:22:12.543Z,102402.38
2023-02-13T06:23:14.041Z,102423.28
2023-02-13T06:24:15.590Z,102417.75
2023-02-13T06:25:17.189Z,102428.81
2023-02-13T06:26:18.954Z,102427.06
2023-02-13T06:27:20.552Z,102427.06
2023-02-13T06:28:22.126Z,102430.69
2023-02-13T06:29:23.613Z,102434.50
2023-02-13T06:30:25.108Z,102430.88
2023-02-13T06:31:26.808Z,102421.72
2023-02-13T06:32:28.366Z,102433.66
2023-02-13T06:33:29.860Z,102431.94
2023-02-13T06:34:31.382Z,102432.59
2023-02-13T06:35:32.910Z,102431.75
2023-02-13T06:36:34.421Z,102426.22
2023-02-13T06:37:35.963Z,102430.88
2023-02-13T06:38:37.471Z,102427.06
2023-02-13T06:39:38.961Z,102430.88
2023-02-13T06:40:40.454Z,102435.38
2023-02-13T06:41:41.928Z,102430.88
2023-02-13T06:42:43.701Z,102431.75
2023-02-13T06:43:45.237Z,102435.38
2023-02-13T06:44:46.677Z,102432.59
2023-02-13T06:45:48.192Z,102427.44
2023-02-13T06:46:49.762Z,102436.78
2023-02-13T06:47:51.864Z,102433.16
2023-02-13T06:48:53.947Z,102427.81
2023-02-13T06:49:55.426Z,102437.81
2023-02-13T06:50:57.194Z,102440.59
2023-02-13T06:51:58.835Z,102438.84
2023-02-13T06:53:00.344Z,102441.63
2023-02-13T06:54:02.685Z,102443.50
2023-02-13T06:55:05.186Z,102438.84
2023-02-13T06:56:07.581Z,102440.59
2023-02-13T06:57:09.030Z,102438.84
2023-02-13T06:58:10.503Z,102435.91
2023-02-13T06:59:12.049Z,102444.38
2023-02-13T07:00:14.233Z,102441.78
2023-02-13T07:01:15.850Z,102440.91
2023-02-13T07:02:17.380Z,102439.88
2023-02-13T07:03:18.917Z,102445.25
2023-02-13T07:04:20.403Z,102444.22
2023-02-13T07:05:21.905Z,102443.16
2023-02-13T07:06:23.396Z,102437.28
2023-02-13T07:07:24.853Z,102441.22
2023-02-13T07:08:26.316Z,102438.81
2023-02-13T07:09:27.920Z,102436.56
2023-02-13T07:10:29.479Z,102441.56
2023-02-13T07:11:31.214Z,102440.00
2023-02-13T07:12:33.069Z,102444.81
2023-02-13T07:13:34.531Z,102443.25
2023-02-13T07:14:36.044Z,102444.25
2023-02-13T07:15:37.683Z,102443.72
2023-02-13T07:16:39.161Z,102439.00
2023-02-13T07:17:40.646Z,102440.00
2023-02-13T07:18:42.177Z,102430.97
2023-02-13T07:19:43.659Z,102440.66
2023-02-13T07:20:45.250Z,102438.88
2023-02-13T07:21:46.746Z,102444.56
2023-02-13T07:22:48.223Z,102444.50
2023-02-13T07:23:49.723Z,102443.28
2023-02-13T07:24:51.237Z,102444.66
2023-02-13T07:25:52.756Z,102446.00
2023-02-13T07:26:54.316Z,102451.00
2023-02-13T07:27:55.781Z,102445.28
2023-02-13T07:29:10.402Z,102447.28
2023-02-13T07:30:12.258Z,102442.06
2023-02-13T07:31:13.893Z,102450.31
2023-02-13T07:32:15.438Z,102453.03
2023-02-13T07:33:16.900Z,102447.44
2023-02-13T07:34:18.368Z,102441.78
2023-02-13T07:35:19.856Z,102450.44
2023-02-13T07:36:21.357Z,102444.44
2023-02-13T07:37:22.858Z,102446.75
2023-02-13T07:38:24.331Z,102438.34
2023-02-13T07:39:25.786Z,102441.53
2023-02-13T07:40:27.496Z,102440.19
2023-02-13T07:41:28.985Z,102439.72
2023-02-13T07:42:34.340Z,102451.38
2023-02-13T07:43:35.826Z,102447.06
2023-02-13T07:44:37.309Z,102446.81
2023-02-13T07:45:38.821Z,102444.59
2023-02-13T07:46:40.487Z,102447.94
2023-02-13T07:47:42.325Z,102451.44
2023-02-13T07:48:43.772Z,102448.97
2023-02-13T07:49:45.313Z,102442.25
2023-02-13T07:50:46.813Z,102451.28
2023-02-13T07:51:48.327Z,102450.53
2023-02-13T07:52:53.219Z,102424.38
2023-02-13T07:53:56.529Z,102450.25
2023-02-13T07:54:58.082Z,102447.81
2023-02-13T07:55:59.795Z,102446.44
2023-02-13T07:57:01.476Z,102448.03
2023-02-13T07:58:02.929Z,102448.06
2023-02-13T07:59:05.795Z,102441.31
2023-02-13T08:00:08.653Z,102441.81
2023-02-13T08:01:13.985Z,102435.84
2023-02-13T08:02:15.643Z,102445.94
2023-02-13T08:03:17.210Z,102443.22
2023-02-13T08:04:18.712Z,102437.69
2023-02-13T08:05:20.197Z,102434.75
2023-02-13T08:06:21.664Z,102443.41
2023-02-13T08:07:23.181Z,102438.31
2023-02-13T08:08:24.727Z,102440.56
2023-02-13T08:09:44.724Z,102437.59
2023-02-13T08:11:04.615Z,102431.69
2023-02-13T08:12:07.057Z,102431.94
2023-02-13T08:13:08.663Z,102438.19
2023-02-13T08:14:10.226Z,102431.81
2023-02-13T08:15:12.112Z,102438.25
2023-02-13T08:16:13.653Z,102436.78
2023-02-13T08:17:15.188Z,102427.56
2023-02-13T08:18:18.859Z,102431.44
2023-02-13T08:19:21.198Z,102431.44
2023-02-13T08:20:24.027Z,102432.50
2023-02-13T08:21:25.559Z,102426.72
2023-02-13T08:22:27.020Z,102424.78
2023-02-13T08:23:28.741Z,102429.66
2023-02-13T08:24:30.297Z,102429.63
2023-02-13T08:25:31.970Z,102433.88
2023-02-13T08:26:33.546Z,102428.00
2023-02-13T08:27:35.182Z,102429.66
2023-02-13T08:28:36.917Z,102436.91
2023-02-13T08:29:38.493Z,102436.19
2023-02-13T08:30:40.033Z,102427.94
2023-02-13T08:31:41.671Z,102427.03
2023-02-13T08:32:53.897Z,102430.38
2023-02-13T08:33:56.421Z,102425.78
2023-02-13T08:34:57.902Z,102431.06
2023-02-13T08:35:59.537Z,102417.13
2023-02-13T08:37:01.629Z,102418.75
2023-02-13T08:38:03.822Z,102427.88
2023-02-13T08:39:05.370Z,102427.72
2023-02-13T08:40:12.210Z,102421.97
2023-02-13T08:41:14.008Z,102425.25
2023-02-13T08:42:16.344Z,102422.94
2023-02-13T08:43:18.030Z,102429.31
2023-02-13T08:44:19.549Z,102426.72
2023-02-13T08:45:21.011Z,102423.59
2023-02-13T08:46:22.682Z,102424.56
2023-02-13T08:47:24.215Z,102425.09
2023-02-13T08:48:26.280Z,102420.63
2023-02-13T08:49:27.773Z,102414.81
2023-02-13T08:50:29.325Z,102414.84
2023-02-13T08:51:30.834Z,102425.22
2023-02-13T08:52:32.285Z,102428.09
2023-02-13T08:53:34.025Z,102424.44
2023-02-13T08:54:36.378Z,102412.09
2023-02-13T08:55:37.826Z,102419.69
2023-02-13T08:56:39.320Z,102426.16
2023-02-13T08:57:40.838Z,102423.47
2023-02-13T08:58:42.294Z,102429.22
2023-02-13T08:59:44.077Z,102425.44
2023-02-13T09:00:45.568Z,102422.13
2023-02-13T09:01:47.074Z,102419.41
2023-02-13T09:02:48.688Z,102422.38
2023-02-13T09:03:50.233Z,102418.19
2023-02-13T09:04:51.726Z,102415.84
2023-02-13T09:05:53.187Z,102423.41
2023-02-13T09:06:54.738Z,102421.31
2023-02-13T09:07:56.247Z,102420.56
2023-02-13T09:08:57.861Z,102422.78
2023-02-13T09:09:59.340Z,102410.88
2023-02-13T09:11:01.412Z,102426.22
2023-02-13T09:12:02.946Z,102424.78
2023-02-13T09:13:04.474Z,102416.47
2023-02-13T09:14:05.971Z,102424.47
2023-02-13T09:15:07.593Z,102415.44
2023-02-13T09:16:10.101Z,102424.84
2023-02-13T09:17:11.628Z,102416.84
2023-02-13T09:18:13.106Z,102417.81
2023-02-13T09:19:14.596Z,102413.44
2023-02-13T09:20:16.115Z,102412.78
2023-02-13T09:21:17.848Z,102416.38
2023-02-13T09:22:19.365Z,102416.38
2023-02-13T09:23:20.895Z,102414.19
2023-02-13T09:24:22.382Z,102407.41
2023-02-13T09:25:23.901Z,102416.44
2023-02-13T09:26:25.414Z,102409.75
2023-02-13T09:27:26.966Z,102418.91
2023-02-13T09:28:31.874Z,102418.38
2023-02-13T09:29:33.878Z,102421.66
2023-02-13T09:30:35.511Z,102408.97
2023-02-13T09:31:37.143Z,102409.94
2023-02-13T09:32:39.005Z,102410.84
2023-02-13T09:33:40.575Z,102415.63
2023-02-13T09:34:42.055Z,102412.34
2023-02-13T09:35:46.297Z,102407.31
2023-02-13T09:36:51.417Z,102409.09
2023-02-13T09:37:52.910Z,102412.66
2023-02-13T09:38:55.082Z,102410.66
2023-02-13T09:39:56.665Z,102412.47
2023-02-13T09:40:59.813Z,102405.19
2023-02-13T09:42:01.384Z,102405.09
2023-02-13T09:43:13.695Z,102408.31
2023-02-13T09:44:33.922Z,102410.91
2023-02-13T09:45:35.684Z,102407.50
2023-02-13T09:46:37.943Z,102409.22
2023-02-13T09:47:39.960Z,102407.97
2023-02-13T09:48:41.985Z,102413.44
2023-02-13T09:49:44.796Z,102410.41
2023-02-13T09:50:46.278Z,102406.22
2023-02-13T09:51:48.570Z,102407.34
2023-02-13T09:52:51.062Z,102407.44
2023-02-13T09:53:59.597Z,102423.31
2023-02-13T09:55:04.445Z,102410.56
2023-02-13T09:56:09.885Z,102414.31
2023-02-13T09:57:28.948Z,102410.38
2023-02-13T09:58:30.442Z,102403.91
2023-02-13T09:59:51.330Z,102399.94
2023-02-13T10:00:53.821Z,102411.59
2023-02-13T10:01:55.461Z,102395.72
2023-02-13T10:02:56.992Z,102402.00
2023-02-13T10:04:01.622Z,102405.41
2023-02-13T10:05:10.979Z,102407.16
2023-02-13T10:06:15.016Z,102410.53
2023-02-13T10:07:28.370Z,102408.28
2023-02-13T10:09:05.193Z,102400.34
2023-02-13T10:10:12.567Z,102407.72
2023-02-13T10:11:16.719Z,102415.69
2023-02-13T10:12:36.927Z,102408.00
2023-02-13T10:13:56.799Z,102416.78
2023-02-13T10:15:04.344Z,102410.88
2023-02-13T10:16:06.260Z,102420.78
2023-02-13T10:17:07.974Z,102409.41
2023-02-13T10:18:13.066Z,102410.56
2023-02-13T10:19:14.527Z,102412.25
2023-02-13T10:20:27.603Z,102408.56
2023-02-13T10:21:30.650Z,102413.97
2023-02-13T10:22:38.062Z,102400.88
2023-02-13T10:23:43.672Z,102403.69
2023-02-13T10:24:52.770Z,102403.09
2023-02-13T10:25:58.510Z,102404.50
2023-02-13T10:27:00.834Z,102407.59
2023-02-13T10:28:06.697Z,102400.22
2023-02-13T10:29:38.968Z,102399.34
2023-02-13T10:30:45.573Z,102396.47
2023-02-13T10:31:47.337Z,102398.41
2023-02-13T10:33:20.885Z,102400.59
2023-02-13T10:34:22.657Z,102397.81
2023-02-13T10:35:26.689Z,102394.13
2023-02-13T10:36:30.289Z,102396.41
2023-02-13T10:37:31.970Z,102386.94
2023-02-13T10:38:34.163Z,102393.06
2023-02-13T10:39:35.625Z,102388.75
2023-02-13T10:40:38.344Z,102385.63
2023-02-13T10:41:43.032Z,102397.06
2023-02-13T10:42:45.403Z,102384.78
2023-02-13T10:44:05.521Z,102393.56
2023-02-13T10:45:26.723Z,102387.72
2023-02-13T10:46:50.046Z,102384.81
2023-02-13T10:48:09.862Z,102380.72
2023-02-13T10:49:17.345Z,102376.00
2023-02-13T10:50:19.552Z,102377.13
2023-02-13T10:51:33.596Z,102376.19
2023-02-13T10:52:41.252Z,102375.31
2023-02-13T10:53:45.574Z,102370.69
2023-02-13T10:55:19.560Z,102374.88
2023-02-13T10:56:25.474Z,102362.50
2023-02-13T10:57:44.825Z,102366.66
2023-02-13T10:58:55.607Z,102370.19
2023-02-13T11:00:04.807Z,102375.81
2023-02-13T11:01:07.440Z,102371.19
2023-02-13T11:02:25.889Z,102365.50
2023-02-13T11:03:27.924Z,102363.91
2023-02-13T11:04:29.644Z,102360.91
2023-02-13T11:05:31.223Z,102359.94
2023-02-13T11:06:33.585Z,102355.34
2023-02-13T11:07:35.059Z,102363.50
2023-02-13T11:08:40.337Z,102359.78
2023-02-13T11:09:42.398Z,102357.69
2023-02-13T11:10:43.994Z,102348.75
2023-02-13T11:11:45.478Z,102353.47
2023-02-13T11:12:47.019Z,102349.38
2023-02-13T11:13:48.532Z,102358.09
2023-02-13T11:14:53.634Z,102345.75
2023-02-13T11:15:58.097Z,102354.28
2023-02-13T11:17:03.389Z,102342.13
2023-02-13T11:18:15.756Z,102345.38
2023-02-13T11:19:22.280Z,102354.53
2023-02-13T11:20:35.868Z,102354.22
2023-02-13T11:21:38.659Z,102345.38
2023-02-13T11:22:42.524Z,102339.88
2023-02-13T11:23:44.399Z,102334.66
2023-02-13T11:25:11.969Z,102349.19
2023-02-13T11:26:28.756Z,102348.16
2023-02-13T11:27:34.214Z,102347.34
2023-02-13T11:28:36.973Z,102344.25
2023-02-13T11:29:38.609Z,102339.94
2023-02-13T11:30:40.125Z,102333.94
2023-02-13T11:31:41.734Z,102341.63
2023-02-13T11:32:43.298Z,102340.78
2023-02-13T11:33:44.901Z,102343.09
2023-02-13T11:34:46.609Z,102344.00
2023-02-13T11:35:48.254Z,102339.81
2023-02-13T11:36:52.881Z,102339.28
2023-02-13T11:38:14.666Z,102337.91
2023-02-13T11:39:19.689Z,102337.69
2023-02-13T11:40:29.355Z,102338.88
2023-02-13T11:41:31.273Z,102349.38
2023-02-13T11:42:34.459Z,102337.78
2023-02-13T11:43:37.450Z,102342.34
2023-02-13T11:44:39.016Z,102346.13
2023-02-13T11:45:40.732Z,102350.38
2023-02-13T11:46:49.082Z,102344.16
2023-02-13T11:47:50.643Z,102341.31
2023-02-13T11:48:58.158Z,102343.34
2023-02-13T11:49:59.634Z,102345.59
2023-02-13T11:51:01.095Z,102341.06
2023-02-13T11:52:03.267Z,102347.06
2023-02-13T11:53:05.626Z,102344.72
2023-02-13T11:54:07.124Z,102339.34
2023-02-13T11:55:26.520Z,102347.03
2023-02-13T11:56:28.028Z,102349.56
2023-02-13T11:57:33.471Z,102350.97
2023-02-13T11:58:35.134Z,102347.03
2023-02-13T11:59:40.564Z,102336.25
2023-02-13T12:00:42.352Z,102340.81
2023-02-13T12:01:44.429Z,102340.22
2023-02-13T12:02:47.427Z,102335.09
2023-02-13T12:04:02.441Z,102334.78
2023-02-13T12:05:39.455Z,102326.88
2023-02-13T12:06:41.013Z,102329.41
2023-02-13T12:07:42.793Z,102333.09
2023-02-13T12:08:45.192Z,102337.06
2023-02-13T12:09:47.835Z,102335.09
2023-02-13T12:10:49.314Z,102337.91
2023-02-13T12:11:54.413Z,102341.03
2023-02-13T12:13:15.521Z,102332.53
2023-02-13T12:14:19.655Z,102331.09
2023-02-13T12:15:25.317Z,102330.53
2023-02-13T12:16:26.805Z,102328.81
2023-02-13T12:17:32.467Z,102311.50
2023-02-13T12:18:40.635Z,102331.63
2023-02-13T12:19:42.702Z,102331.63
2023-02-13T12:20:44.137Z,102329.94